This is the latest recevied weather packets stored in our database for station/object DG0PX-12. If no packets are shown the sender has not sent any weather packets the latest 10 day(s).
| Time | Temp. | Humidity | Pressure | Rain* | Wind** | Luminosity | Snow |
|---|---|---|---|---|---|---|---|
| 1787771671 | 27.22° C | 54% | 949.7 hPa | - | - | - | - |
| 1787770771 | 27.78° C | 52% | 949.7 hPa | - | - | - | - |
| 1787769871 | 27.22° C | 54% | 949.5 hPa | - | - | - | - |
| 1787768971 | 27.78° C | 53% | 949.4 hPa | - | - | - | - |
| 1787768071 | 28.89° C | 47% | 949.6 hPa | - | - | - | - |
| 1787767171 | 29.44° C | 44% | 949.6 hPa | - | - | - | - |
| 1787766271 | 30° C | 42% | 949.7 hPa | - | - | - | - |
| 1787765371 | 29.44° C | 40% | 949.6 hPa | - | - | - | - |
| 1787764471 | 30° C | 40% | 949.6 hPa | - | - | - | - |
| 1787763571 | 30.56° C | 39% | 949.6 hPa | - | - | - | - |
| 1787762671 | 30.56° C | 39% | 949.7 hPa | - | - | - | - |
| 1787761771 | 29.44° C | 40% | 949.7 hPa | - | - | - | - |
| 1787760871 | 31.11° C | 37% | 949.8 hPa | - | - | - | - |
| 1787759971 | 32.22° C | 36% | 949.9 hPa | - | - | - | - |
| 1787759071 | 36.11° C | 30% | 950.4 hPa | - | - | - | - |
| 1787758170 | 31.67° C | 35% | 950.2 hPa | - | - | - | - |
| 1787757270 | 32.22° C | 35% | 950.3 hPa | - | - | - | - |
| 1787756370 | 31.11° C | 35% | 950.2 hPa | - | - | - | - |
| 1787755470 | 37.78° C | 26% | 950.8 hPa | - | - | - | - |
| 1787754570 | 37.22° C | 27% | 951 hPa | - | - | - | - |
| 1787753670 | 36.67° C | 28% | 951 hPa | - | - | - | - |
| 1787752770 | 36.67° C | 27% | 951 hPa | - | - | - | - |
| 1787751870 | 36.67° C | 28% | 951.1 hPa | - | - | - | - |
| 1787750970 | 36.11° C | 28% | 951.1 hPa | - | - | - | - |
| 1787750070 | 33.33° C | 32% | 951 hPa | - | - | - | - |
* Rain since midnight (hover to see other rain measurements)
** Current wind speed in m/s (hover to see current wind gust speed)